Time;durP1;ratioP1;P1;durP2;ratioP2;P2;SDS_P1;SDS_P2;PMS_P1;PMS_P2;Temp;Humidity;BMP_temperature;BMP_pressure;BME280_temperature;BME280_humidity;BME280_pressure;Samples;Min_cycle;Max_cycle;Signal;HPM_P1;HPM_P2
2023/01/02 00:04:11;;;;;;;;;;;;;;;20.05;42.64;96004.94;10405785;28;3229;-50
2023/01/02 00:09:11;;;;;;;;;;;;;;;20.02;42.66;96016.00;10391119;28;3149;-54
2023/01/02 00:14:11;;;;;;;;;;;;;;;20.00;42.38;96002.31;10394806;28;3138;-53
2023/01/02 00:19:11;;;;;;;;;;;;;;;19.96;42.54;95993.38;10386797;28;3169;-52
2023/01/02 00:24:12;;;;;;;;;;;;;;;19.98;42.28;96001.78;10392985;28;3262;-54
2023/01/02 00:29:12;;;;;;;;;;;;;;;20.00;42.00;96002.31;10393931;28;3236;-53
2023/01/02 00:34:12;;;;;;;;;;;;;;;20.00;42.21;96002.31;10393461;28;3341;-53
2023/01/02 00:39:13;;;;;;;;;;;;;;;20.02;42.18;95998.38;10388340;28;3201;-51
2023/01/02 00:44:13;;;;;;;;;;;;;;;19.96;41.92;95985.47;10397655;28;3198;-53
2023/01/02 00:49:13;;;;;;;;;;;;;;;19.91;42.38;95996.78;10398799;28;3177;-53
2023/01/02 00:54:13;;;;;;;;;;;;;;;19.92;42.10;95990.47;10396733;28;3305;-54
2023/01/02 00:59:14;;;;;;;;;;;;;;;19.94;41.99;95982.31;10396806;28;3180;-53
2023/01/02 01:04:14;;;;;;;;;;;;;;;19.90;42.16;95973.38;10387158;28;3170;-53
2023/01/02 01:09:14;;;;;;;;;;;;;;;19.93;41.89;95991.25;10401995;28;3003;-53
2023/01/02 01:14:15;;;;;;;;;;;;;;;19.86;41.77;96001.25;10393145;28;3182;-54
2023/01/02 01:19:15;;;;;;;;;;;;;;;19.93;41.87;95999.94;10402076;28;3153;-54
2023/01/02 01:24:15;;;;;;;;;;;;;;;19.90;41.88;95991.78;10389893;28;3157;-52
2023/01/02 01:29:15;;;;;;;;;;;;;;;19.89;41.62;95990.19;10393824;28;3074;-53
2023/01/02 01:34:16;;;;;;;;;;;;;;;19.89;41.52;95983.09;10394512;28;3194;-52
2023/01/02 01:39:16;;;;;;;;;;;;;;;19.87;41.70;95989.66;10399182;28;3180;-51
2023/01/02 01:44:35;;;;;;;;;;;;;;;19.82;41.66;96000.19;10397818;28;3317;-53
2023/01/02 01:49:35;;;;;;;;;;;;;;;19.81;41.48;95998.63;10397097;28;3233;-53
2023/01/02 01:54:40;;;;;;;;;;;;;;;19.86;41.40;95996.78;10383316;28;3102;-54
2023/01/02 01:59:40;;;;;;;;;;;;;;;19.81;41.37;95996.78;10392977;28;3134;-54
2023/01/02 02:04:41;;;;;;;;;;;;;;;19.76;41.53;95996.00;10390936;28;3181;-53
2023/01/02 02:09:43;;;;;;;;;;;;;;;19.75;41.44;95999.66;10392131;28;3320;-51
2023/01/02 02:14:43;;;;;;;;;;;;;;;19.67;41.61;95992.28;10414325;28;3218;-53
2023/01/02 02:19:56;;;;;;;;;;;;;;;19.66;41.61;95980.22;10394150;28;3118;-55
2023/01/02 02:25:05;;;;;;;;;;;;;;;19.66;41.69;95990.72;10377726;28;3274;-54
2023/01/02 02:30:18;;;;;;;;;;;;;;;19.66;41.63;95980.22;10389284;28;3156;-51
2023/01/02 02:35:30;;;;;;;;;;;;;;;19.63;41.47;95975.47;10389431;28;3094;-49
2023/01/02 02:40:49;;;;;;;;;;;;;;;19.60;41.62;95974.13;10389653;28;3146;-50
2023/01/02 02:46:13;;;;;;;;;;;;;;;19.60;41.58;95973.38;10386021;28;3238;-51
2023/01/02 02:51:34;;;;;;;;;;;;;;;19.54;41.51;95961.25;10393823;28;3192;-54
2023/01/02 02:56:34;;;;;;;;;;;;;;;19.57;41.62;95960.72;10402538;28;3187;-54
2023/01/02 03:01:34;;;;;;;;;;;;;;;19.52;41.70;95952.81;10400357;28;3218;-53
2023/01/02 03:06:35;;;;;;;;;;;;;;;19.53;41.58;95954.41;10398101;28;3119;-51
2023/01/02 03:12:07;;;;;;;;;;;;;;;19.51;41.55;95951.25;10401025;28;3157;-51
2023/01/02 03:17:15;;;;;;;;;;;;;;;19.51;41.40;95953.88;10397404;28;3447;-51
2023/01/02 03:22:18;;;;;;;;;;;;;;;19.48;41.52;95937.59;10393818;28;3374;-51
2023/01/02 03:27:22;;;;;;;;;;;;;;;19.45;41.25;95935.47;10402152;28;3106;-52
2023/01/02 03:32:24;;;;;;;;;;;;;;;19.43;41.53;95913.13;10405706;28;3285;-52
2023/01/02 03:37:25;;;;;;;;;;;;;;;19.43;41.47;95906.03;10407532;28;3098;-52
2023/01/02 03:42:25;;;;;;;;;;;;;;;19.41;41.52;95904.72;10404069;28;3377;-52
2023/01/02 03:47:27;;;;;;;;;;;;;;;19.40;41.63;95905.75;10397485;28;3101;-53
2023/01/02 03:52:27;;;;;;;;;;;;;;;19.39;41.53;95912.84;10404078;28;3117;-53
2023/01/02 03:57:43;;;;;;;;;;;;;;;19.37;41.23;95901.81;10394812;28;3174;-53
2023/01/02 04:02:43;;;;;;;;;;;;;;;19.37;41.27;95901.81;10397814;28;3113;-52
2023/01/02 04:07:46;;;;;;;;;;;;;;;19.35;41.44;95906.53;10397391;28;3205;-51
2023/01/02 04:12:51;;;;;;;;;;;;;;;19.35;41.38;95903.91;10416704;28;3244;-54
2023/01/02 04:18:03;;;;;;;;;;;;;;;19.35;41.26;95906.53;10405419;28;3285;-52
2023/01/02 04:23:05;;;;;;;;;;;;;;;19.33;41.13;95903.38;10396601;28;3154;-51
2023/01/02 04:28:09;;;;;;;;;;;;;;;19.33;40.96;95898.13;10393341;28;3142;-52
2023/01/02 04:33:09;;;;;;;;;;;;;;;19.33;40.88;95898.13;10394700;28;3238;-50
2023/01/02 04:38:09;;;;;;;;;;;;;;;19.31;40.78;95894.16;10393243;28;3257;-52
2023/01/02 04:43:19;;;;;;;;;;;;;;;19.31;40.77;95921.22;10398123;28;3154;-51
2023/01/02 04:48:19;;;;;;;;;;;;;;;19.30;40.68;95916.25;10384496;28;3125;-50
2023/01/02 04:53:20;;;;;;;;;;;;;;;19.29;40.84;95928.59;10391919;28;3176;-51
2023/01/02 04:58:20;;;;;;;;;;;;;;;19.29;40.72;95923.31;10393820;28;3407;-51
2023/01/02 05:03:20;;;;;;;;;;;;;;;19.28;40.64;95926.22;10389691;28;3117;-54
2023/01/02 05:08:20;;;;;;;;;;;;;;;19.26;40.38;95929.13;10393533;28;3166;-53
2023/01/02 05:13:21;;;;;;;;;;;;;;;19.26;40.42;95926.50;10393685;28;3164;-50
2023/01/02 05:18:21;;;;;;;;;;;;;;;19.25;40.19;95932.78;10392669;28;3504;-48
2023/01/02 05:28:40;;;;;;;;;;;;;;;19.24;39.75;95923.34;10392505;28;3166;-49
2023/01/02 05:33:41;;;;;;;;;;;;;;;19.24;39.57;95923.34;10394215;28;3186;-50
2023/01/02 05:38:41;;;;;;;;;;;;;;;19.23;39.54;95926.19;10394277;28;3569;-53
2023/01/02 05:43:41;;;;;;;;;;;;;;;19.21;39.77;95926.47;10387933;28;3137;-53
2023/01/02 05:48:41;;;;;;;;;;;;;;;19.20;39.42;95930.16;10387433;28;3204;-53
2023/01/02 05:53:42;;;;;;;;;;;;;;;19.19;39.74;95931.19;10387656;28;3289;-51
2023/01/02 05:58:43;;;;;;;;;;;;;;;19.19;39.30;95933.81;10388520;28;3137;-53
2023/01/02 06:03:46;;;;;;;;;;;;;;;19.19;39.19;95944.34;10392894;28;3153;-53
2023/01/02 06:08:46;;;;;;;;;;;;;;;19.18;38.92;95958.53;10394653;28;3146;-53
2023/01/02 06:13:46;;;;;;;;;;;;;;;19.17;40.47;95958.78;10386202;28;3162;-54
2023/01/02 06:18:47;;;;;;;;;;;;;;;19.24;40.06;95959.34;10391837;28;3110;-51
2023/01/02 06:23:47;;;;;;;;;;;;;;;19.24;40.35;95954.88;10382767;28;3107;-51
2023/01/02 06:28:48;;;;;;;;;;;;;;;19.25;39.27;95951.19;10390028;28;3170;-53
2023/01/02 06:33:55;;;;;;;;;;;;;;;19.25;38.40;95938.03;10387701;28;3224;-54
2023/01/02 06:38:55;;;;;;;;;;;;;;;19.24;37.59;95941.75;10394528;28;3273;-51
2023/01/02 06:43:56;;;;;;;;;;;;;;;19.26;37.46;95950.16;10395990;28;3162;-54
2023/01/02 06:48:56;;;;;;;;;;;;;;;19.30;37.30;95943.31;10393637;28;3128;-51
2023/01/02 06:53:56;;;;;;;;;;;;;;;19.34;37.15;95943.63;10389845;28;3157;-53
2023/01/02 06:58:57;;;;;;;;;;;;;;;19.38;37.19;95952.56;10411642;28;3102;-51
2023/01/02 07:03:57;;;;;;;;;;;;;;;19.41;36.98;95939.66;10387484;28;3129;-48
2023/01/02 07:08:57;;;;;;;;;;;;;;;19.45;36.67;95950.47;10378050;28;3130;-53
2023/01/02 07:13:58;;;;;;;;;;;;;;;19.49;36.73;95943.63;10384752;28;3470;-53
2023/01/02 07:18:58;;;;;;;;;;;;;;;19.51;36.67;95941.53;10392056;28;3214;-48
2023/01/02 07:23:58;;;;;;;;;;;;;;;19.55;36.63;95937.34;10393833;28;3388;-51
2023/01/02 07:28:59;;;;;;;;;;;;;;;19.59;36.67;95942.84;10391351;28;3162;-54
2023/01/02 07:34:00;;;;;;;;;;;;;;;19.61;36.56;95967.03;10402500;28;3170;-51
2023/01/02 07:39:01;;;;;;;;;;;;;;;19.64;36.61;95972.56;10400385;28;3161;-52
2023/01/02 07:44:01;;;;;;;;;;;;;;;19.67;36.54;95972.03;10398735;28;3178;-50
2023/01/02 07:49:02;;;;;;;;;;;;;;;19.71;36.36;95975.72;10403101;28;3321;-50
2023/01/02 07:54:02;;;;;;;;;;;;;;;19.74;36.61;95977.06;10396347;28;3150;-49
2023/01/02 07:59:08;;;;;;;;;;;;;;;19.77;36.51;95966.00;10404944;28;3102;-51
2023/01/02 08:04:09;;;;;;;;;;;;;;;19.80;36.64;95958.38;10406124;28;3180;-48
2023/01/02 08:09:09;;;;;;;;;;;;;;;19.83;36.54;95957.06;10407258;28;3161;-52
2023/01/02 08:14:09;;;;;;;;;;;;;;;19.85;36.50;95970.72;10402454;28;3159;-52
2023/01/02 08:19:09;;;;;;;;;;;;;;;19.89;36.54;95988.34;10397855;28;3150;-47
2023/01/02 08:24:10;;;;;;;;;;;;;;;19.91;36.29;95994.16;10393579;28;3185;-48
2023/01/02 08:29:10;;;;;;;;;;;;;;;19.94;36.26;95987.56;10400411;28;3165;-49
2023/01/02 08:34:13;;;;;;;;;;;;;;;19.97;36.61;95994.97;10393394;28;3214;-49
2023/01/02 08:39:14;;;;;;;;;;;;;;;20.01;36.55;95988.13;10402625;28;3213;-52
2023/01/02 08:44:15;;;;;;;;;;;;;;;20.03;36.37;95999.94;10391894;28;3082;-48
2023/01/02 08:49:15;;;;;;;;;;;;;;;20.04;36.27;96009.41;10399715;28;3162;-54
2023/01/02 08:54:15;;;;;;;;;;;;;;;20.08;36.21;96009.66;10394540;28;3213;-50
2023/01/02 08:59:15;;;;;;;;;;;;;;;20.11;36.22;96020.44;10394224;28;3101;-49
2023/01/02 09:04:16;;;;;;;;;;;;;;;20.16;36.30;96017.03;10388492;28;3133;-50
2023/01/02 09:09:16;;;;;;;;;;;;;;;20.19;36.21;96013.88;10397648;28;3249;-51
2023/01/02 09:14:17;;;;;;;;;;;;;;;20.20;35.86;96012.84;10407445;28;3149;-49
2023/01/02 09:19:18;;;;;;;;;;;;;;;20.22;35.94;96021.28;10413534;28;3161;-51
2023/01/02 09:24:18;;;;;;;;;;;;;;;20.24;36.18;96019.16;10397464;28;3165;-51
2023/01/02 09:29:18;;;;;;;;;;;;;;;20.27;35.83;96023.91;10393002;28;3254;-52
2023/01/02 09:34:19;;;;;;;;;;;;;;;20.30;36.33;96018.09;10395783;28;3161;-53
2023/01/02 09:39:20;;;;;;;;;;;;;;;20.35;37.38;96012.06;10396823;28;3109;-49
2023/01/02 09:44:29;;;;;;;;;;;;;;;20.37;37.43;96013.38;10401221;28;3199;-50
2023/01/02 09:49:31;;;;;;;;;;;;;;;20.40;37.83;96022.59;10393879;28;3211;-52
2023/01/02 09:54:32;;;;;;;;;;;;;;;20.50;38.22;96022.56;10396872;28;3678;-50
2023/01/02 09:59:33;;;;;;;;;;;;;;;20.57;39.24;96025.69;10399944;28;3146;-50
2023/01/02 10:04:43;;;;;;;;;;;;;;;20.58;38.88;96024.66;10393003;28;3162;-48
2023/01/02 10:09:44;;;;;;;;;;;;;;;20.62;39.32;96025.69;10396381;28;3227;-50
2023/01/02 10:14:53;;;;;;;;;;;;;;;20.64;39.33;96023.59;10396167;28;3302;-48
2023/01/02 10:20:02;;;;;;;;;;;;;;;20.63;39.45;96017.53;10397670;28;3106;-50
2023/01/02 10:25:15;;;;;;;;;;;;;;;20.62;39.72;95997.53;10398310;28;3169;-52
2023/01/02 10:30:17;;;;;;;;;;;;;;;20.62;39.77;96010.69;10390687;28;3146;-51
2023/01/02 10:35:17;;;;;;;;;;;;;;;20.60;39.86;96004.91;10397398;28;3150;-53
2023/01/02 10:40:19;;;;;;;;;;;;;;;20.62;39.56;95973.81;10391096;28;3079;-53
2023/01/02 10:45:20;;;;;;;;;;;;;;;20.58;39.70;95967.50;10390836;28;3186;-53
2023/01/02 10:50:21;;;;;;;;;;;;;;;20.51;39.80;95967.00;10390874;28;3134;-48
2023/01/02 10:55:37;;;;;;;;;;;;;;;20.49;39.74;95969.09;10406304;28;3125;-48
2023/01/02 11:00:37;;;;;;;;;;;;;;;20.47;39.89;95973.84;10390101;28;3248;-51
2023/01/02 11:05:46;;;;;;;;;;;;;;;20.51;40.80;95982.78;10396751;28;3117;-51
2023/01/02 11:10:48;;;;;;;;;;;;;;;20.50;41.23;95990.97;10398893;28;3169;-49
2023/01/02 11:15:49;;;;;;;;;;;;;;;20.49;40.96;95973.56;10398217;28;3153;-48
2023/01/02 11:20:52;;;;;;;;;;;;;;;20.46;41.12;95974.91;10400691;28;3226;-50
2023/01/02 11:25:52;;;;;;;;;;;;;;;20.42;41.06;95981.78;10397441;28;3327;-49
2023/01/02 11:31:13;;;;;;;;;;;;;;;20.43;40.84;95969.38;10393189;28;3130;-47
2023/01/02 11:36:14;;;;;;;;;;;;;;;20.42;40.70;95979.16;10395826;28;3190;-54
2023/01/02 11:46:45;;;;;;;;;;;;;;;20.34;40.83;95976.25;10391854;28;3483;-51
2023/01/02 11:51:47;;;;;;;;;;;;;;;20.33;40.77;95974.66;10396705;28;3290;-52
2023/01/02 11:56:48;;;;;;;;;;;;;;;20.28;40.67;95972.81;10402830;28;3264;-52
2023/01/02 12:01:51;;;;;;;;;;;;;;;20.28;40.64;95975.47;10403545;28;3428;-49
2023/01/02 12:06:58;;;;;;;;;;;;;;;20.24;40.75;95983.09;10386342;28;3311;-50
2023/01/02 12:12:02;;;;;;;;;;;;;;;20.30;40.58;95980.47;10416851;28;3292;-50
2023/01/02 12:17:12;;;;;;;;;;;;;;;20.23;40.62;95971.00;10415886;28;3297;-50
2023/01/02 12:22:22;;;;;;;;;;;;;;;20.21;40.78;95974.97;10393604;28;3452;-51
2023/01/02 12:27:44;;;;;;;;;;;;;;;20.15;41.01;95984.66;10400721;28;3326;-52
2023/01/02 12:33:03;;;;;;;;;;;;;;;20.14;40.61;95987.56;10398324;28;3347;-51
2023/01/02 12:38:05;;;;;;;;;;;;;;;20.12;40.88;95979.94;10401890;28;3320;-52
2023/01/02 12:43:13;;;;;;;;;;;;;;;20.15;40.55;95978.63;10407447;28;3391;-50
2023/01/02 12:48:30;;;;;;;;;;;;;;;20.11;40.64;95982.84;10393081;28;3288;-51
2023/01/02 12:53:31;;;;;;;;;;;;;;;20.09;40.60;95985.72;10395448;28;3459;-49
2023/01/02 12:58:37;;;;;;;;;;;;;;;20.07;40.77;95984.44;10396873;28;3296;-50
2023/01/02 13:03:44;;;;;;;;;;;;;;;20.10;40.68;95991.78;10387225;28;3294;-49
2023/01/02 13:08:48;;;;;;;;;;;;;;;20.10;40.56;95997.03;10406985;28;3570;-50
2023/01/02 13:13:48;;;;;;;;;;;;;;;20.00;40.79;96002.31;10394371;28;3332;-51
2023/01/02 13:19:04;;;;;;;;;;;;;;;20.01;40.96;96007.31;10391402;28;3262;-52
2023/01/02 13:24:06;;;;;;;;;;;;;;;20.02;40.81;96008.09;10406810;28;3166;-50
2023/01/02 13:29:07;;;;;;;;;;;;;;;19.98;40.73;96020.19;10411090;28;3399;-50
2023/01/02 13:34:08;;;;;;;;;;;;;;;19.95;40.88;96018.88;10387260;28;3257;-48
2023/01/02 13:39:18;;;;;;;;;;;;;;;20.01;40.77;96035.47;10393672;28;3279;-51
2023/01/02 13:44:19;;;;;;;;;;;;;;;19.99;40.79;96037.59;10386210;28;3251;-48
2023/01/02 13:49:19;;;;;;;;;;;;;;;19.96;40.83;96040.72;10412641;28;3426;-53
2023/01/02 13:54:20;;;;;;;;;;;;;;;19.90;40.85;96050.47;10383845;28;3475;-49
2023/01/02 13:59:20;;;;;;;;;;;;;;;19.89;40.88;96058.59;10397277;28;3268;-52
2023/01/02 14:04:28;;;;;;;;;;;;;;;19.92;40.79;96068.59;10385219;28;3186;-51
2023/01/02 14:09:28;;;;;;;;;;;;;;;19.85;40.69;96074.13;10389347;28;3303;-50
2023/01/02 14:14:32;;;;;;;;;;;;;;;19.84;40.93;96082.28;10387003;28;3248;-48
2023/01/02 14:19:33;;;;;;;;;;;;;;;19.88;40.77;96081.50;10392918;28;3267;-47
2023/01/02 14:24:40;;;;;;;;;;;;;;;19.86;40.79;96093.34;10405691;28;3208;-49
2023/01/02 14:29:48;;;;;;;;;;;;;;;19.77;41.09;96089.63;10402608;28;3331;-51
2023/01/02 14:34:49;;;;;;;;;;;;;;;19.77;40.94;96092.25;10400852;28;3247;-49
2023/01/02 14:39:50;;;;;;;;;;;;;;;19.75;41.04;96100.41;10401630;28;3308;-53
2023/01/02 14:44:51;;;;;;;;;;;;;;;19.73;41.19;96106.97;10389277;28;3307;-51
2023/01/02 14:49:56;;;;;;;;;;;;;;;19.68;41.08;96117.50;10379775;28;3355;-49
2023/01/02 14:54:58;;;;;;;;;;;;;;;19.68;41.34;96126.16;10391192;28;3307;-52
2023/01/02 15:00:00;;;;;;;;;;;;;;;19.68;41.11;96125.38;10408138;28;3369;-52
2023/01/02 15:05:05;;;;;;;;;;;;;;;19.70;41.03;96125.91;10407769;28;3379;-49
2023/01/02 15:10:09;;;;;;;;;;;;;;;19.68;41.31;96131.41;10391680;28;3381;-49
2023/01/02 15:15:13;;;;;;;;;;;;;;;19.69;41.20;96134.84;10411468;28;3287;-53
2023/01/02 15:20:20;;;;;;;;;;;;;;;19.74;41.06;96145.38;10392288;28;3300;-50
2023/01/02 15:25:36;;;;;;;;;;;;;;;19.80;40.92;96153.03;10392163;28;3284;-51
2023/01/02 15:30:39;;;;;;;;;;;;;;;19.73;40.79;96157.75;10389154;28;3315;-49
2023/01/02 15:35:40;;;;;;;;;;;;;;;19.75;40.98;96162.75;10383024;28;3388;-47
2023/01/02 15:40:41;;;;;;;;;;;;;;;19.70;40.90;96173.25;10391040;28;3292;-51
2023/01/02 15:45:43;;;;;;;;;;;;;;;19.63;41.04;96177.94;10397022;28;3449;-50
2023/01/02 15:50:43;;;;;;;;;;;;;;;19.72;40.74;96181.69;10407602;28;3478;-51
2023/01/02 15:55:43;;;;;;;;;;;;;;;19.69;40.82;96195.31;10409657;28;3364;-50
2023/01/02 16:00:44;;;;;;;;;;;;;;;19.74;40.60;96196.13;10396946;28;3314;-51
2023/01/02 16:05:50;;;;;;;;;;;;;;;19.71;40.53;96196.66;10399583;28;3363;-49
2023/01/02 16:10:59;;;;;;;;;;;;;;;19.68;39.23;96205.06;10414631;28;3375;-51
2023/01/02 16:16:00;;;;;;;;;;;;;;;19.66;38.28;96211.63;10412591;28;3243;-51
2023/01/02 16:21:00;;;;;;;;;;;;;;;19.68;37.82;96205.06;10387413;28;3224;-50
2023/01/02 16:26:05;;;;;;;;;;;;;;;19.69;37.61;96216.38;10406017;28;3327;-47
2023/01/02 16:31:10;;;;;;;;;;;;;;;19.71;37.68;96225.59;10396544;28;3681;-51
2023/01/02 16:36:13;;;;;;;;;;;;;;;19.75;37.72;96217.97;10384729;28;3300;-48
2023/01/02 16:41:41;;;;;;;;;;;;;;;19.78;37.75;96226.16;10394527;28;3379;-51
2023/01/02 16:46:42;;;;;;;;;;;;;;;19.82;37.72;96236.97;10396602;28;3260;-50
2023/01/02 16:51:43;;;;;;;;;;;;;;;19.85;37.60;96242.50;10393637;28;3312;-52
2023/01/02 16:56:44;;;;;;;;;;;;;;;19.88;37.53;96249.09;10397398;28;3385;-52
2023/01/02 17:01:44;;;;;;;;;;;;;;;19.91;37.57;96261.72;10394841;28;3256;-51
2023/01/02 17:06:44;;;;;;;;;;;;;;;19.93;37.62;96262.25;10391783;28;3294;-50
2023/01/02 17:11:58;;;;;;;;;;;;;;;19.96;37.26;96272.28;10390660;28;3427;-49
2023/01/02 17:16:59;;;;;;;;;;;;;;;19.97;37.25;96287.78;10407549;28;3272;-51
2023/01/02 17:21:59;;;;;;;;;;;;;;;19.99;37.40;96285.69;10398130;28;3276;-49
2023/01/02 17:26:59;;;;;;;;;;;;;;;20.03;37.08;96299.16;10392303;28;3265;-51
2023/01/02 17:31:59;;;;;;;;;;;;;;;20.04;37.10;96308.63;10399036;28;3260;-48
2023/01/02 17:37:00;;;;;;;;;;;;;;;20.06;37.17;96306.53;10398638;28;3397;-48
2023/01/02 17:42:00;;;;;;;;;;;;;;;20.07;37.23;96305.50;10395812;28;3392;-50
2023/01/02 17:47:00;;;;;;;;;;;;;;;20.09;36.98;96319.19;10397679;28;3293;-51
2023/01/02 17:52:00;;;;;;;;;;;;;;;20.10;37.13;96324.19;10393517;28;3372;-49
2023/01/02 17:57:01;;;;;;;;;;;;;;;20.13;37.05;96333.41;10383807;28;3291;-52
2023/01/02 18:02:01;;;;;;;;;;;;;;;20.14;36.94;96338.41;10387976;28;3311;-50
2023/01/02 18:07:01;;;;;;;;;;;;;;;20.30;37.79;96344.56;10396832;28;3312;-48
2023/01/02 18:12:01;;;;;;;;;;;;;;;20.42;37.56;96346.97;10400346;28;3288;-48
2023/01/02 18:17:21;;;;;;;;;;;;;;;20.54;37.59;96356.25;10387334;28;3339;-51
2023/01/02 18:22:25;;;;;;;;;;;;;;;20.67;37.64;96350.47;10388956;28;3300;-49
2023/01/02 18:27:28;;;;;;;;;;;;;;;20.76;36.92;96350.75;10383561;28;3295;-49
2023/01/02 18:32:47;;;;;;;;;;;;;;;20.86;37.28;96359.50;10392294;28;3296;-49
2023/01/02 18:37:47;;;;;;;;;;;;;;;20.91;37.07;96358.72;10392491;28;3303;-50
2023/01/02 18:42:50;;;;;;;;;;;;;;;20.97;37.25;96360.31;10390451;28;3530;-48
2023/01/02 18:47:56;;;;;;;;;;;;;;;21.00;37.16;96370.31;10402680;28;3304;-50
2023/01/02 18:52:56;;;;;;;;;;;;;;;21.02;37.01;96371.66;10388154;28;3379;-52
2023/01/02 18:58:00;;;;;;;;;;;;;;;21.05;37.01;96378.28;10393165;28;3303;-51
2023/01/02 19:03:02;;;;;;;;;;;;;;;21.05;36.47;96379.06;10408912;28;3224;-49
2023/01/02 19:08:12;;;;;;;;;;;;;;;21.10;36.55;96388.03;10390504;28;3269;-47
2023/01/02 19:13:15;;;;;;;;;;;;;;;21.10;36.40;96382.75;10390804;28;3331;-50
2023/01/02 19:18:21;;;;;;;;;;;;;;;21.10;36.46;96386.19;10405918;28;3236;-50
2023/01/02 19:23:27;;;;;;;;;;;;;;;21.14;36.79;96391.72;10387082;28;3296;-49
2023/01/02 19:28:28;;;;;;;;;;;;;;;21.14;36.32;96395.16;10393267;28;3250;-50
2023/01/02 19:33:36;;;;;;;;;;;;;;;21.18;36.51;96390.16;10400445;28;3320;-50
2023/01/02 19:38:36;;;;;;;;;;;;;;;21.21;36.65;96398.31;10397904;28;3218;-46
2023/01/02 19:43:36;;;;;;;;;;;;;;;21.22;36.58;96393.84;10399393;28;3307;-47
2023/01/02 19:48:37;;;;;;;;;;;;;;;21.23;36.86;96390.16;10404281;28;3442;-47
2023/01/02 19:53:37;;;;;;;;;;;;;;;21.23;36.61;96390.16;10396863;28;3439;-52
2023/01/02 19:58:37;;;;;;;;;;;;;;;21.28;36.64;96395.44;10394745;28;3432;-46
2023/01/02 20:03:37;;;;;;;;;;;;;;;21.30;36.88;96396.78;10409384;28;3365;-50
2023/01/02 20:08:38;;;;;;;;;;;;;;;21.32;36.51;96409.69;10409743;28;3297;-48
2023/01/02 20:13:38;;;;;;;;;;;;;;;21.40;36.88;96406.53;10401779;28;3622;-47
2023/01/02 20:18:38;;;;;;;;;;;;;;;21.41;36.88;96413.41;10396321;28;3302;-48
2023/01/02 20:23:39;;;;;;;;;;;;;;;21.42;36.96;96420.25;10394185;28;3381;-47
2023/01/02 20:28:39;;;;;;;;;;;;;;;21.44;37.02;96412.84;10394713;28;3287;-48
2023/01/02 20:33:39;;;;;;;;;;;;;;;21.43;36.66;96417.31;10400638;28;3304;-47
2023/01/02 20:38:39;;;;;;;;;;;;;;;21.45;36.77;96419.72;10395760;28;3381;-50
2023/01/02 20:43:40;;;;;;;;;;;;;;;21.47;37.09;96428.97;10394250;28;3253;-49
2023/01/02 20:48:40;;;;;;;;;;;;;;;21.49;36.56;96439.25;10398016;28;3248;-49
2023/01/02 20:53:40;;;;;;;;;;;;;;;21.50;36.77;96440.81;10391791;28;3427;-50
2023/01/02 20:58:40;;;;;;;;;;;;;;;21.52;36.80;96441.34;10390944;28;3283;-49
2023/01/02 21:03:41;;;;;;;;;;;;;;;21.51;36.58;96450.31;10393353;28;3461;-48
2023/01/02 21:08:41;;;;;;;;;;;;;;;21.52;36.47;96449.25;10393696;28;3193;-50
2023/01/02 21:13:41;;;;;;;;;;;;;;;21.53;36.45;96456.94;10404531;28;3538;-49
2023/01/02 21:18:42;;;;;;;;;;;;;;;21.54;36.62;96476.16;10396070;28;3241;-47
2023/01/02 21:23:42;;;;;;;;;;;;;;;21.55;36.59;96477.78;10399625;28;3269;-48
2023/01/02 21:28:49;;;;;;;;;;;;;;;21.56;36.55;96469.59;10396538;28;3255;-50
2023/01/02 21:33:49;;;;;;;;;;;;;;;21.56;36.81;96488.06;10393085;28;3375;-51
2023/01/02 21:38:49;;;;;;;;;;;;;;;21.57;36.57;96488.84;10388225;28;3228;-50
2023/01/02 21:43:50;;;;;;;;;;;;;;;21.48;37.25;96488.56;10394526;28;3344;-50
2023/01/02 21:48:50;;;;;;;;;;;;;;;21.37;37.64;96494.09;10397718;28;3276;-51
2023/01/02 21:53:50;;;;;;;;;;;;;;;21.23;37.19;96493.78;10392472;28;3320;-52
2023/01/02 21:58:50;;;;;;;;;;;;;;;21.15;37.71;96498.75;10402102;28;3241;-52
2023/01/02 22:03:55;;;;;;;;;;;;;;;21.09;38.32;96500.59;10393570;28;3370;-49
2023/01/02 22:08:55;;;;;;;;;;;;;;;20.98;36.61;96505.00;10392829;28;3280;-46
2023/01/02 22:13:55;;;;;;;;;;;;;;;20.90;36.11;96502.84;10390280;28;3336;-46
2023/01/02 22:18:55;;;;;;;;;;;;;;;20.85;35.94;96510.75;10393464;28;3392;-48
2023/01/02 22:23:56;;;;;;;;;;;;;;;20.82;36.03;96519.16;10392760;28;3256;-49
2023/01/02 22:28:56;;;;;;;;;;;;;;;20.78;36.03;96515.47;10395928;28;3275;-51
2023/01/02 22:33:57;;;;;;;;;;;;;;;20.77;35.82;96528.91;10395900;28;3275;-49
2023/01/02 22:38:57;;;;;;;;;;;;;;;20.76;36.52;96527.28;10397875;28;3300;-48
2023/01/02 22:43:57;;;;;;;;;;;;;;;20.75;35.83;96538.91;10395364;28;3236;-50
2023/01/02 22:48:58;;;;;;;;;;;;;;;20.74;36.43;96546.00;10381442;28;3277;-49
2023/01/02 22:53:58;;;;;;;;;;;;;;;20.70;36.30;96552.81;10395108;28;3304;-49
2023/01/02 22:58:58;;;;;;;;;;;;;;;20.72;36.96;96558.63;10390845;28;3291;-48
2023/01/02 23:03:59;;;;;;;;;;;;;;;20.69;36.76;96559.13;10396309;28;3249;-49
2023/01/02 23:08:59;;;;;;;;;;;;;;;20.70;37.23;96559.94;10406955;28;3271;-48
2023/01/02 23:13:59;;;;;;;;;;;;;;;20.65;36.82;96563.31;10402126;28;3314;-47
2023/01/02 23:19:15;;;;;;;;;;;;;;;20.69;37.99;96568.91;10407087;28;3186;-47
2023/01/02 23:24:19;;;;;;;;;;;;;;;20.66;37.56;96572.81;10394127;28;3240;-54
2023/01/02 23:29:20;;;;;;;;;;;;;;;20.65;37.39;96571.22;10409138;28;3327;-48
2023/01/02 23:34:22;;;;;;;;;;;;;;;20.61;38.08;96572.78;10398755;28;3470;-51
2023/01/02 23:39:23;;;;;;;;;;;;;;;20.57;37.29;96579.59;10401928;28;3351;-48
2023/01/02 23:44:23;;;;;;;;;;;;;;;20.56;37.91;96582.50;10406311;28;3257;-50
2023/01/02 23:49:23;;;;;;;;;;;;;;;20.53;37.63;96586.44;10394715;28;3332;-51
2023/01/02 23:54:23;;;;;;;;;;;;;;;20.52;37.45;96589.31;10390562;28;3267;-47
2023/01/02 23:59:24;;;;;;;;;;;;;;;20.52;37.91;96584.84;10401568;28;3253;-49
